METAR és
SPECI
METAR LHBP 302300Z 30012KT 3000 -RASN BR SCT004 OVC016 00/00 Q0975 R88/29//95 NOSIG=
METAR LHBP 302230Z 30011KT 3000 -RASN BR FEW004 OVC007 00/00 Q0974 R88/29//95 NOSIG=
METAR LHBP 302200Z 30011KT 3000 -RASN BR SCT003 OVC006 00/00 Q0974 R88/29//95 NOSIG=
METAR LHBP 302130Z 31011KT 3000 -SNRA BR SCT004 OVC007 00/00 Q0974 R88/29//95 NOSIG=
METAR LHBP 302100Z 31012KT 2000 -RASN BR OVC006 00/00 Q0975 RERASN R88/29//95 NOSIG=
METAR LHBP 302030Z 31011KT 2000 -RASN BR SCT002 OVC007 00/00 Q0975 R88/29//95 NOSIG=
TAF
TAF LHBP 302300Z 3100/3124 30011KT 3000 -SNRA -SN BR BKN003 OVC008 TEMPO 3100/3103 7000 NSW BKN014 OVC080 BECMG 3102/3105 26010KT 9999 NSW SCT040 BECMG 3108/3111 21009KT BECMG 3115/3118 14007KT 5000 BR SCT020 TEMPO 3120/3124 VRB03KT 1200 FZBCFG BR BKN003=
GAMET
Nincs érvényes távirat! 
FAHU41 LHBM 301115
LHCC GAMET VALID 301200/301800 LHBP-
BUDAPEST FIR BLW FL100
SECN 1
SFC WSPD: 14/18 30KT WI N4700 E02000 - N4700 E02142 -
N4610 E02100 - N4610 E02000 - N4700 E02000
SFC VIS: 12/14 1000-5000M SN RASN W OF E01800
14/18 300-5000M SN RASN SHSN W OF E01900
SIGWX: 14/18 EMBD TS S OF N4700 E01613 - N4610 E02042
SIG CLD: 12/14 BKN/OVC 500-1000/XXX FT AGL W OF E01800
14/18 BKN/OVC 200-1000/XXX FT AGL W OF E01900
14/18 EMBD TCU CB 1000/XXX FT AGL S OF N4700 E01613 -
N4610 E02042
ICE: MOD 5000/XXX FT AMSL SE OF LINE N4614 E01658 - N4814 E01936
TURB: MOD SFC/FL100
SIGMETS APPLICABLE: AT TIME OF ISSUE 02=
AIRMET
Nincs érvényes távirat! 
WAHU41 LHBM 101020
LHCC AIRMET 01 VALID 101020/101200 LHBP-
LHCC BUDAPEST FIR SFC VIS 0600-5000M RA BR AND
BKN CLD 200-1000/6000FT AGL OBS WI N4744 E01820 -
N4814 E01936 - N4715 E02152 - N4616 E02106 - N4603 E01921
- N4744 E01820 MOV E WKN=
SIGMET
WSHU31 LHBM 302200
LHCC SIGMET 05 VALID 302200/310200 LHBP-
LHCC BUDAPEST FIR SEV ICE FCST E OF N4622 E01645 - N4800
E01900 5500FT/FL120 MOV ENE WKN=
OMSZ: 2015. január 30. 23:02 (22:02  UTC)
[WSHU31]
SIGMET
Vulkáni hamufelhő
Nincs érvényes távirat! 
WVHU31 LHBM 271515 CCA
LHCC SIGMET 03 VALID 271515/271800 LHBP-
LHCC BUDAPEST FIR EXERCISE VOLCEX12/01
CNL VA SIGMET 02 271200/271800
EXERCISE EXERCISE EXERCISE VOLCEX12/01=